createdAt,value
2018-04-13T00:00:31.764Z,13.70
2018-04-13T00:02:59.243Z,15.77
2018-04-13T00:05:26.702Z,14.47
2018-04-13T00:07:54.197Z,14.63
2018-04-13T00:10:21.676Z,16.23
2018-04-13T00:12:49.915Z,21.13
2018-04-13T00:15:17.412Z,16.77
2018-04-13T00:17:45.653Z,19.00
2018-04-13T00:20:13.147Z,11.23
2018-04-13T00:22:41.411Z,9.87
2018-04-13T00:25:08.915Z,11.27
2018-04-13T00:27:36.453Z,23.33
2018-04-13T00:30:04.788Z,19.70
2018-04-13T00:32:33.084Z,11.70
2018-04-13T00:35:00.574Z,14.80
2018-04-13T00:37:28.074Z,10.23
2018-04-13T00:39:55.554Z,13.37
2018-04-13T00:42:23.174Z,8.13
2018-04-13T00:44:50.756Z,3.93
2018-04-13T00:47:18.271Z,6.37
2018-04-13T00:49:45.776Z,5.20
2018-04-13T00:52:13.288Z,7.07
2018-04-13T00:54:40.779Z,4.47
2018-04-13T00:57:08.281Z,4.40
2018-04-13T00:59:35.748Z,6.50
2018-04-13T01:02:04.043Z,8.10
2018-04-13T01:04:31.527Z,7.13
2018-04-13T01:06:59.012Z,5.93
2018-04-13T01:09:26.500Z,5.10
2018-04-13T01:11:54.733Z,5.23
2018-04-13T01:14:22.228Z,6.53
2018-04-13T01:16:50.463Z,7.60
2018-04-13T01:19:17.936Z,7.10
2018-04-13T01:21:45.443Z,6.73
2018-04-13T01:24:12.945Z,5.10
2018-04-13T01:26:40.484Z,5.57
2018-04-13T01:29:07.970Z,5.63
2018-04-13T01:31:35.474Z,7.40
2018-04-13T01:34:03.723Z,5.77
2018-04-13T01:36:31.193Z,4.63
2018-04-13T01:38:59.430Z,7.03
2018-04-13T01:41:26.893Z,6.37
2018-04-13T01:43:54.930Z,6.27
2018-04-13T01:46:22.404Z,6.00
2018-04-13T01:48:49.917Z,5.87
2018-04-13T01:51:18.168Z,5.93
2018-04-13T01:53:45.656Z,5.13
2018-04-13T01:56:13.899Z,7.20
2018-04-13T01:58:41.510Z,6.30
2018-04-13T02:01:09.021Z,9.40
2018-04-13T02:03:36.522Z,5.93
2018-04-13T02:06:03.983Z,8.37
2018-04-13T02:08:31.503Z,7.13
2018-04-13T02:10:58.986Z,8.90
2018-04-13T02:13:27.271Z,6.33
2018-04-13T02:15:55.390Z,8.20
2018-04-13T02:18:22.891Z,6.97
2018-04-13T02:20:51.165Z,6.97
2018-04-13T02:23:19.429Z,6.67
2018-04-13T02:25:46.939Z,7.20
2018-04-13T02:28:14.466Z,7.23
2018-04-13T02:30:42.753Z,7.57
2018-04-13T02:33:10.254Z,8.57
2018-04-13T02:35:37.763Z,4.17
2018-04-13T02:38:05.995Z,5.70
2018-04-13T02:40:33.486Z,8.47
2018-04-13T02:43:00.983Z,5.50
2018-04-13T02:45:28.508Z,4.87
2018-04-13T02:47:56.728Z,9.93
2018-04-13T02:50:24.211Z,6.67
2018-04-13T02:52:51.700Z,6.87
2018-04-13T02:55:19.988Z,3.63
2018-04-13T02:57:47.514Z,6.57
2018-04-13T03:00:15.025Z,6.60
2018-04-13T03:02:43.274Z,4.70
2018-04-13T03:05:11.558Z,4.60
2018-04-13T03:07:39.920Z,5.77
2018-04-13T03:10:07.378Z,6.83
2018-04-13T03:12:35.780Z,7.63
2018-04-13T03:15:03.485Z,9.63
2018-04-13T03:17:31.106Z,8.40
2018-04-13T03:19:59.392Z,9.00
2018-04-13T03:22:26.942Z,6.47
2018-04-13T03:24:54.493Z,8.77
2018-04-13T03:27:22.799Z,5.90
2018-04-13T03:29:50.275Z,5.17
2018-04-13T03:32:17.754Z,5.77
2018-04-13T03:34:45.266Z,5.10
2018-04-13T03:37:12.751Z,5.90
2018-04-13T03:39:40.245Z,5.77
2018-04-13T03:42:08.493Z,4.70
2018-04-13T03:44:36.002Z,4.43
2018-04-13T03:47:03.480Z,5.57
2018-04-13T03:49:31.010Z,4.90
2018-04-13T03:51:58.504Z,5.77
2018-04-13T03:54:26.072Z,6.30
2018-04-13T03:56:54.244Z,6.20
2018-04-13T03:59:21.723Z,7.90
2018-04-13T04:01:49.219Z,6.23
2018-04-13T04:04:17.524Z,7.20
2018-04-13T04:06:45.058Z,8.07
2018-04-13T04:09:12.806Z,6.63
2018-04-13T04:11:40.465Z,5.07
2018-04-13T04:14:08.031Z,7.63
2018-04-13T04:16:36.314Z,5.77
2018-04-13T04:19:04.800Z,10.53
2018-04-13T04:21:44.157Z,13.77
2018-04-13T04:24:23.500Z,10.57
2018-04-13T04:26:50.991Z,7.10
2018-04-13T04:29:18.523Z,9.67
2018-04-13T04:31:46.009Z,7.93
2018-04-13T04:34:13.520Z,6.63
2018-04-13T04:36:41.016Z,7.33
2018-04-13T04:39:08.557Z,7.97
2018-04-13T04:41:36.046Z,7.30
2018-04-13T04:44:03.945Z,11.03
2018-04-13T04:46:32.241Z,10.97
2018-04-13T04:48:59.746Z,10.03
2018-04-13T04:51:27.249Z,9.73
2018-04-13T04:53:55.478Z,9.47
2018-04-13T04:56:22.987Z,14.50
2018-04-13T04:58:51.275Z,10.83
2018-04-13T05:01:18.894Z,14.00
2018-04-13T05:03:46.396Z,15.23
2018-04-13T05:06:13.897Z,11.20
2018-04-13T05:08:41.442Z,16.70
2018-04-13T05:11:09.002Z,15.93
2018-04-13T05:13:36.514Z,17.00
2018-04-13T05:16:05.034Z,16.47
2018-04-13T05:18:32.567Z,19.37
2018-04-13T05:21:00.183Z,24.23
2018-04-13T05:23:27.682Z,24.53
2018-04-13T05:25:55.253Z,25.17
2018-04-13T05:28:22.846Z,26.80
2018-04-13T05:30:50.356Z,30.90
2018-04-13T05:33:18.616Z,25.87
2018-04-13T05:35:46.178Z,29.93
2018-04-13T05:38:14.475Z,32.33
2018-04-13T05:40:42.742Z,29.13
2018-04-13T05:43:11.020Z,28.57
2018-04-13T05:45:39.364Z,30.43
2018-04-13T05:48:06.874Z,33.43
2018-04-13T05:50:34.369Z,36.87
2018-04-13T05:53:01.871Z,32.73
2018-04-13T05:55:30.862Z,33.40
2018-04-13T05:57:59.931Z,32.70
2018-04-13T06:00:27.648Z,35.27
2018-04-13T06:02:55.290Z,35.30
2018-04-13T06:05:22.941Z,32.57
2018-04-13T06:07:51.375Z,31.93
2018-04-13T06:10:18.900Z,33.60
2018-04-13T06:12:47.197Z,45.37
2018-04-13T06:15:14.770Z,39.17
2018-04-13T06:17:42.281Z,37.63
2018-04-13T06:20:09.825Z,35.87
2018-04-13T06:22:37.322Z,39.63
2018-04-13T06:25:04.830Z,37.13
2018-04-13T06:27:32.343Z,49.57
2018-04-13T06:30:00.712Z,42.80
2018-04-13T06:32:28.209Z,42.50
2018-04-13T06:34:55.734Z,37.60
2018-04-13T06:37:24.103Z,39.60
2018-04-13T06:39:52.352Z,38.10
2018-04-13T06:42:19.873Z,37.57
2018-04-13T06:44:47.368Z,37.63
2018-04-13T06:47:14.857Z,40.83
2018-04-13T06:49:42.358Z,42.67
2018-04-13T06:52:09.854Z,45.37
2018-04-13T06:54:37.366Z,50.97
2018-04-13T06:57:04.876Z,54.17
2018-04-13T06:59:33.195Z,53.47
2018-04-13T07:02:00.697Z,54.43
2018-04-13T07:04:28.176Z,46.87
2018-04-13T07:06:56.566Z,44.23
2018-04-13T07:09:24.068Z,48.83
2018-04-13T07:11:51.642Z,49.37
2018-04-13T07:14:19.148Z,51.47
2018-04-13T07:16:47.409Z,47.63
2018-04-13T07:19:14.909Z,49.17
2018-04-13T07:21:42.468Z,49.63
2018-04-13T07:24:10.844Z,56.93
2018-04-13T07:26:38.346Z,59.17
2018-04-13T07:29:05.902Z,62.17
2018-04-13T07:31:33.438Z,59.67
2018-04-13T07:34:00.950Z,58.93
2018-04-13T07:36:28.463Z,62.87
2018-04-13T07:38:55.946Z,66.20
2018-04-13T07:41:23.442Z,66.43
2018-04-13T07:43:50.994Z,67.27
2018-04-13T07:46:18.461Z,67.40
2018-04-13T07:48:45.959Z,68.43
2018-04-13T07:51:13.477Z,73.07
2018-04-13T07:53:41.084Z,71.00
2018-04-13T07:56:08.612Z,69.97
2018-04-13T07:58:36.856Z,70.77
2018-04-13T08:01:05.183Z,71.90
2018-04-13T08:03:33.406Z,73.57
2018-04-13T08:06:01.687Z,73.23
2018-04-13T08:08:30.049Z,74.90
2018-04-13T08:10:57.422Z,70.63
2018-04-13T08:13:25.660Z,74.07
2018-04-13T08:15:53.179Z,75.50
2018-04-13T08:18:20.659Z,82.03
2018-04-13T08:20:48.160Z,83.60
2018-04-13T08:23:16.489Z,79.10
2018-04-13T08:25:43.983Z,78.30
2018-04-13T08:28:11.469Z,76.63
2018-04-13T08:30:39.771Z,80.47
2018-04-13T08:33:08.007Z,76.17
2018-04-13T08:35:36.348Z,83.23
2018-04-13T08:38:03.866Z,77.37
2018-04-13T08:40:32.107Z,83.63
2018-04-13T08:42:59.613Z,82.37
2018-04-13T08:45:27.193Z,82.00
2018-04-13T08:47:54.694Z,82.47
2018-04-13T08:50:22.186Z,86.17
2018-04-13T08:52:49.713Z,82.60
2018-04-13T08:55:17.197Z,88.03
2018-04-13T08:57:44.761Z,87.03
2018-04-13T09:00:12.238Z,90.33
2018-04-13T09:02:39.718Z,85.57
2018-04-13T09:05:07.260Z,86.47
2018-04-13T09:07:34.773Z,96.17
2018-04-13T09:10:03.092Z,91.23
2018-04-13T09:12:30.587Z,96.93
2018-04-13T09:14:58.057Z,94.73
2018-04-13T09:17:26.327Z,86.73
2018-04-13T09:19:53.805Z,85.87
2018-04-13T09:22:22.127Z,97.43
2018-04-13T09:24:49.648Z,95.57
2018-04-13T09:27:17.950Z,88.10
2018-04-13T09:29:45.745Z,75.40
2018-04-13T09:32:13.362Z,77.10
2018-04-13T09:34:42.543Z,76.73
2018-04-13T09:37:10.851Z,77.70
2018-04-13T09:39:38.327Z,82.10
2018-04-13T09:42:05.846Z,73.17
2018-04-13T09:44:34.825Z,75.53
2018-04-13T09:47:02.324Z,78.97
2018-04-13T09:49:30.624Z,79.33
2018-04-13T09:51:58.114Z,83.30
2018-04-13T09:54:26.510Z,80.60
2018-04-13T09:56:54.076Z,77.63
2018-04-13T09:59:22.339Z,76.70
2018-04-13T10:01:49.855Z,78.73
2018-04-13T10:04:20.003Z,75.73
2018-04-13T10:06:47.512Z,74.23
2018-04-13T10:09:15.122Z,83.30
2018-04-13T10:11:42.624Z,80.23
2018-04-13T10:14:11.017Z,82.07
2018-04-13T10:16:38.520Z,78.27
2018-04-13T10:19:06.029Z,75.70
2018-04-13T10:21:33.567Z,82.47
2018-04-13T10:24:01.822Z,87.63
2018-04-13T10:26:29.322Z,87.90
2018-04-13T10:28:56.802Z,82.67
2018-04-13T10:31:24.432Z,82.37
2018-04-13T10:33:52.012Z,84.30
2018-04-13T10:36:19.531Z,82.17
2018-04-13T10:38:47.842Z,94.40
2018-04-13T10:41:15.370Z,88.00
2018-04-13T10:43:43.660Z,81.60
2018-04-13T10:46:11.979Z,89.40
2018-04-13T10:48:39.484Z,97.20
2018-04-13T10:51:07.780Z,90.30
2018-04-13T10:53:35.264Z,89.63
2018-04-13T10:56:02.777Z,86.67
2018-04-13T10:58:31.159Z,95.60
2018-04-13T11:00:59.483Z,83.47
2018-04-13T11:03:27.010Z,88.10
2018-04-13T11:05:54.587Z,92.23
2018-04-13T11:08:22.092Z,89.53
2018-04-13T11:10:49.602Z,90.93
2018-04-13T11:13:17.131Z,86.73
2018-04-13T11:15:45.425Z,87.37
2018-04-13T11:18:13.372Z,99.23
2018-04-13T11:20:40.872Z,102.30
2018-04-13T11:23:08.354Z,95.80
2018-04-13T11:25:36.693Z,103.70
2018-04-13T11:28:04.176Z,98.40
2018-04-13T11:30:31.696Z,101.63
2018-04-13T11:32:59.957Z,100.87
2018-04-13T11:35:27.472Z,108.43
2018-04-13T11:37:55.017Z,109.50
2018-04-13T11:40:22.694Z,114.17
2018-04-13T11:42:50.200Z,115.63
2018-04-13T11:45:18.483Z,117.17
2018-04-13T11:47:46.719Z,122.30
2018-04-13T11:50:14.224Z,127.63
2018-04-13T11:52:42.532Z,138.60
2018-04-13T11:55:10.048Z,133.97
2018-04-13T11:57:38.334Z,138.63
2018-04-13T12:00:06.654Z,138.70
2018-04-13T12:02:34.164Z,147.63
2018-04-13T12:05:01.718Z,150.23
2018-04-13T12:07:29.191Z,161.50
2018-04-13T12:09:57.494Z,156.27
2018-04-13T12:12:25.030Z,144.37
2018-04-13T12:14:53.321Z,153.40
2018-04-13T12:17:20.875Z,143.97
2018-04-13T12:19:48.366Z,150.57
2018-04-13T12:22:15.876Z,155.07
2018-04-13T12:24:43.369Z,166.27
2018-04-13T12:27:10.882Z,182.67
2018-04-13T12:29:38.405Z,198.13
2018-04-13T12:32:05.905Z,201.07
2018-04-13T12:34:33.469Z,220.47
2018-04-13T12:37:00.963Z,222.63
2018-04-13T12:39:28.509Z,227.63
2018-04-13T12:41:56.003Z,227.00
2018-04-13T12:44:23.517Z,236.43
2018-04-13T12:46:51.941Z,231.17
2018-04-13T12:49:19.447Z,193.10
2018-04-13T12:51:47.775Z,214.80
2018-04-13T12:54:15.402Z,234.57
2018-04-13T12:56:42.921Z,172.00
2018-04-13T12:59:10.398Z,146.60
2018-04-13T13:01:38.666Z,99.50
2018-04-13T13:04:06.169Z,74.60
2018-04-13T13:06:33.670Z,85.90
2018-04-13T13:09:01.153Z,94.27
2018-04-13T13:11:29.469Z,64.80
2018-04-13T13:13:56.945Z,57.23
2018-04-13T13:16:24.468Z,52.97
2018-04-13T13:18:52.710Z,45.37
2018-04-13T13:21:20.226Z,45.23
2018-04-13T13:23:47.862Z,47.03
2018-04-13T13:26:15.404Z,54.53
2018-04-13T13:28:43.668Z,37.70
2018-04-13T13:31:11.246Z,37.13
2018-04-13T13:33:39.513Z,38.23
2018-04-13T13:36:07.777Z,35.47
2018-04-13T13:38:35.277Z,35.40
2018-04-13T13:41:02.797Z,29.00
2018-04-13T13:43:30.367Z,32.67
2018-04-13T13:45:58.681Z,26.00
2018-04-13T13:48:26.212Z,19.67
2018-04-13T13:50:54.474Z,26.23
2018-04-13T13:53:21.992Z,29.77
2018-04-13T13:55:49.641Z,27.10
2018-04-13T13:58:17.145Z,29.90
2018-04-13T14:00:44.791Z,27.80
2018-04-13T14:03:12.378Z,29.53
2018-04-13T14:05:40.921Z,28.50
2018-04-13T14:08:08.408Z,24.27
2018-04-13T14:10:35.894Z,22.07
2018-04-13T14:13:04.143Z,22.57
2018-04-13T14:15:31.665Z,25.53
2018-04-13T14:17:59.752Z,24.40
2018-04-13T14:20:27.395Z,26.27
2018-04-13T14:22:54.878Z,25.40
2018-04-13T14:25:22.395Z,23.00
2018-04-13T14:27:50.662Z,25.17
2018-04-13T14:30:18.965Z,24.77
2018-04-13T14:32:46.445Z,33.10
2018-04-13T14:35:14.094Z,27.83
2018-04-13T14:37:41.615Z,31.87
2018-04-13T14:40:09.948Z,26.47
2018-04-13T14:42:37.451Z,32.83
2018-04-13T14:45:05.778Z,33.07
2018-04-13T14:47:33.288Z,27.67
2018-04-13T14:50:01.634Z,31.47
2018-04-13T14:52:29.340Z,30.47
2018-04-13T14:54:56.977Z,33.60
2018-04-13T14:57:24.558Z,28.83
2018-04-13T14:59:52.836Z,27.97
2018-04-13T15:02:20.399Z,25.57
2018-04-13T15:04:48.549Z,27.10
2018-04-13T15:07:16.968Z,32.37
2018-04-13T15:09:44.590Z,25.93
2018-04-13T15:12:12.234Z,24.47
2018-04-13T15:14:39.727Z,24.30
2018-04-13T15:17:07.479Z,20.17
2018-04-13T15:19:35.264Z,19.73
2018-04-13T15:22:02.872Z,20.03
2018-04-13T15:24:30.372Z,18.83
2018-04-13T15:26:58.659Z,19.80
2018-04-13T15:29:26.907Z,18.17
2018-04-13T15:31:54.412Z,20.43
2018-04-13T15:34:21.969Z,15.10
2018-04-13T15:36:50.305Z,15.53
2018-04-13T15:39:17.797Z,15.57
2018-04-13T15:41:45.333Z,16.10
2018-04-13T15:44:12.854Z,14.70
2018-04-13T15:46:40.602Z,16.13
2018-04-13T15:49:08.157Z,17.30
2018-04-13T15:51:35.694Z,16.70
2018-04-13T15:54:03.207Z,21.43
2018-04-13T15:56:30.662Z,16.97
2018-04-13T15:58:58.147Z,18.13
2018-04-13T16:01:26.410Z,16.53
2018-04-13T16:03:53.891Z,19.53
2018-04-13T16:06:22.182Z,17.73
2018-04-13T16:08:49.641Z,18.93
2018-04-13T16:11:17.140Z,18.53
2018-04-13T16:13:44.706Z,21.10
2018-04-13T16:16:12.252Z,19.47
2018-04-13T16:18:39.940Z,17.50
2018-04-13T16:21:07.463Z,21.93
2018-04-13T16:23:34.989Z,21.60
2018-04-13T16:26:03.696Z,32.37
2018-04-13T16:28:31.217Z,39.97
2018-04-13T16:30:58.712Z,25.30
2018-04-13T16:33:26.305Z,26.63
2018-04-13T16:35:54.544Z,25.47
2018-04-13T16:38:22.084Z,29.27
2018-04-13T16:40:50.402Z,27.77
2018-04-13T16:43:17.918Z,24.40
2018-04-13T16:45:46.295Z,29.50
2018-04-13T16:48:13.908Z,23.30
2018-04-13T16:50:41.451Z,22.20
2018-04-13T16:53:09.485Z,23.00
2018-04-13T16:55:37.757Z,23.43
2018-04-13T16:58:06.279Z,22.23
2018-04-13T17:00:34.688Z,33.07
2018-04-13T17:03:02.235Z,30.07
2018-04-13T17:05:29.712Z,27.27
2018-04-13T17:07:57.216Z,29.33
2018-04-13T17:10:24.719Z,29.27
2018-04-13T17:12:52.385Z,31.27
2018-04-13T17:15:19.919Z,27.40
2018-04-13T17:17:47.416Z,33.83
2018-04-13T17:20:14.922Z,36.80
2018-04-13T17:22:42.519Z,36.37
2018-04-13T17:25:10.183Z,34.07
2018-04-13T17:27:37.693Z,36.77
2018-04-13T17:30:05.960Z,37.97
2018-04-13T17:32:34.239Z,37.80
2018-04-13T17:35:02.554Z,37.53
2018-04-13T17:37:30.836Z,32.97
2018-04-13T17:39:58.335Z,37.97
2018-04-13T17:42:25.824Z,33.57
2018-04-13T17:44:53.342Z,35.90
2018-04-13T17:47:20.900Z,35.03
2018-04-13T17:49:48.440Z,39.83
2018-04-13T17:52:15.963Z,38.77
2018-04-13T17:54:43.629Z,40.67
2018-04-13T17:57:11.247Z,37.93
2018-04-13T17:59:39.835Z,41.70
2018-04-13T18:02:07.651Z,43.27
2018-04-13T18:04:36.204Z,44.00
2018-04-13T18:07:04.673Z,46.27
2018-04-13T18:09:32.484Z,62.07
2018-04-13T18:12:00.292Z,82.50
2018-04-13T18:14:28.660Z,52.10
2018-04-13T18:16:56.275Z,46.20
2018-04-13T18:19:23.914Z,54.57
2018-04-13T18:21:51.875Z,51.20
2018-04-13T18:24:19.699Z,46.00
2018-04-13T18:26:47.225Z,50.53
2018-04-13T18:29:14.720Z,48.17
2018-04-13T18:31:42.201Z,49.27
2018-04-13T18:34:09.697Z,52.63
2018-04-13T18:36:37.977Z,49.77
2018-04-13T18:39:06.241Z,48.57
2018-04-13T18:41:34.505Z,49.77
2018-04-13T18:44:02.033Z,49.63
2018-04-13T18:46:29.534Z,56.27
2018-04-13T18:48:57.025Z,57.17
2018-04-13T18:51:24.512Z,59.50
2018-04-13T18:53:52.042Z,62.43
2018-04-13T18:56:19.529Z,60.60
2018-04-13T18:58:47.650Z,52.67
2018-04-13T19:01:15.879Z,53.97
2018-04-13T19:03:43.375Z,56.17
2018-04-13T19:06:11.617Z,58.90
2018-04-13T19:08:39.110Z,60.90
2018-04-13T19:11:07.386Z,55.77
2018-04-13T19:13:35.641Z,58.80
2018-04-13T19:16:03.223Z,57.83
2018-04-13T19:18:31.542Z,58.57
2018-04-13T19:20:59.035Z,56.60
2018-04-13T19:23:26.573Z,51.27
2018-04-13T19:25:54.076Z,61.37
2018-04-13T19:28:22.470Z,61.53
2018-04-13T19:30:50.775Z,64.43
2018-04-13T19:33:18.281Z,63.57
2018-04-13T19:35:45.796Z,61.60
2018-04-13T19:38:13.314Z,65.47
2018-04-13T19:40:41.597Z,62.90
2018-04-13T19:43:09.837Z,59.03
2018-04-13T19:45:37.384Z,59.43
2018-04-13T19:48:04.899Z,58.83
2018-04-13T19:50:33.159Z,56.53
2018-04-13T19:53:01.397Z,54.60
2018-04-13T19:55:29.652Z,56.23
2018-04-13T19:57:57.293Z,59.47
2018-04-13T20:00:25.818Z,63.50
2018-04-13T20:02:53.326Z,59.07
2018-04-13T20:05:21.612Z,64.53
2018-04-13T20:07:49.111Z,63.50
2018-04-13T20:10:16.620Z,60.27
2018-04-13T20:12:45.244Z,59.70
2018-04-13T20:15:27.883Z,58.03
2018-04-13T20:17:55.555Z,59.20
2018-04-13T20:20:23.147Z,61.37
2018-04-13T20:22:50.723Z,60.67
2018-04-13T20:25:18.341Z,57.83
2018-04-13T20:27:46.016Z,60.73
2018-04-13T20:30:14.468Z,62.40
2018-04-13T20:32:43.556Z,60.60
2018-04-13T20:35:11.483Z,61.80
2018-04-13T20:37:39.159Z,59.80
2018-04-13T20:40:06.793Z,61.30
2018-04-13T20:42:35.059Z,65.60
2018-04-13T20:45:03.335Z,61.63
2018-04-13T20:47:30.826Z,65.27
2018-04-13T20:49:58.321Z,63.50
2018-04-13T20:52:25.849Z,75.17
2018-04-13T20:54:53.370Z,71.57
2018-04-13T20:57:21.699Z,70.23
2018-04-13T20:59:49.209Z,72.53
2018-04-13T21:02:17.484Z,70.30
2018-04-13T21:04:45.186Z,80.53
2018-04-13T21:07:12.824Z,84.10
2018-04-13T21:09:40.400Z,85.67
2018-04-13T21:12:08.956Z,94.50
2018-04-13T21:14:36.582Z,92.83
2018-04-13T21:17:04.233Z,89.47
2018-04-13T21:19:31.738Z,95.30
2018-04-13T21:21:59.981Z,99.03
2018-04-13T21:24:27.528Z,102.27
2018-04-13T21:26:55.504Z,109.83
2018-04-13T21:29:23.010Z,110.00
2018-04-13T21:31:51.304Z,109.77
2018-04-13T21:34:18.820Z,118.73
2018-04-13T21:36:46.323Z,116.13
2018-04-13T21:39:13.903Z,113.80
2018-04-13T21:41:41.371Z,116.07
2018-04-13T21:44:08.890Z,111.97
2018-04-13T21:46:36.563Z,117.63
2018-04-13T21:49:04.143Z,117.07
2018-04-13T21:51:31.723Z,124.17
2018-04-13T21:53:59.273Z,117.30
2018-04-13T21:56:26.777Z,116.27
2018-04-13T21:58:54.262Z,120.73
2018-04-13T22:01:21.755Z,121.27
2018-04-13T22:03:49.372Z,120.80
2018-04-13T22:06:16.872Z,120.37
2018-04-13T22:08:44.445Z,122.80
2018-04-13T22:11:12.119Z,130.30
2018-04-13T22:13:39.658Z,129.10
2018-04-13T22:16:07.223Z,130.00
2018-04-13T22:18:34.879Z,128.97
2018-04-13T22:21:02.389Z,133.17
2018-04-13T22:23:29.976Z,137.47
2018-04-13T22:25:57.582Z,136.33
2018-04-13T22:28:25.260Z,128.87
2018-04-13T22:30:53.670Z,128.63
2018-04-13T22:33:21.302Z,135.80
2018-04-13T22:35:49.618Z,128.37
2018-04-13T22:38:17.216Z,125.40
2018-04-13T22:40:44.873Z,119.87
2018-04-13T22:43:12.486Z,124.53
2018-04-13T22:45:40.019Z,127.23
2018-04-13T22:48:08.294Z,117.30
2018-04-13T22:50:35.847Z,122.43
2018-04-13T22:53:03.547Z,126.33
2018-04-13T22:55:31.172Z,128.37
2018-04-13T22:57:58.727Z,125.57
2018-04-13T23:00:26.308Z,120.80
2018-04-13T23:02:55.574Z,124.33
2018-04-13T23:05:23.210Z,123.77
2018-04-13T23:07:50.906Z,125.80
2018-04-13T23:10:18.872Z,130.00
2018-04-13T23:12:46.541Z,131.07
2018-04-13T23:15:14.156Z,127.90
2018-04-13T23:17:42.490Z,126.47
2018-04-13T23:20:10.769Z,128.50
2018-04-13T23:22:38.389Z,129.97
2018-04-13T23:25:06.195Z,135.37
2018-04-13T23:27:34.492Z,129.00
2018-04-13T23:30:02.833Z,130.50
2018-04-13T23:32:31.182Z,128.57
2018-04-13T23:34:58.698Z,133.07
2018-04-13T23:37:26.264Z,137.97
2018-04-13T23:39:53.789Z,130.50
2018-04-13T23:42:21.306Z,130.13
2018-04-13T23:44:48.774Z,127.37
2018-04-13T23:47:16.296Z,128.30
2018-04-13T23:49:44.574Z,130.87
2018-04-13T23:52:12.863Z,123.67
2018-04-13T23:54:40.411Z,129.00
2018-04-13T23:57:08.688Z,136.40
2018-04-13T23:59:37.048Z,124.90
